Historyczne dane pomiarowe

Dodano dane terminowe – wersja testowa.

Dane z okresu 1951-2019

Wersja bazy: 1.34 [2019-03-16, lista zmian], aktualizacja planowana na 2019-04-15

Dane meteo z obszaru Polski uzyskane na podstawie danych udostępnionych przez Instytut Meteorologii i Gospodarki Wodnej – Państwowy Instytut Badawczy.

 

Wybierz Datę:    

       

TemperaturaWilgotnośćWiatrCiśnienieOpadyŚniegCzas trwania zjawisk
 Stacja t tx tn tng RH VA  wxwx mslp ppp RRR   cm mm wxwxwxwxwxwxwx
1961-08-14 12.9 19.7 5.4- 85.3- 2.0 0.0---- 0.0------------
1961-08-13 12.0 14.5 10.1- 97.3- 5.3 1.3---- 3.8------------
1961-08-12 17.1 23.9 13.7- 91.5- 8.0 2.3---- 26.0------------
1961-08-11 21.5 30.7 17.9- 88.5- 4.0 2.0---- 0.2------------
1961-08-10 24.3 30.7 17.6- 87.5- 3.3 1.0---- 0.0------------
1961-08-09 22.2 28.0 15.8- 88.0- 6.3 1.0---- 23.2------------
1961-08-08 18.7 23.7 14.2- 88.3- 5.7 1.7---- 0.1------------
1961-08-07 22.6 30.3 13.1- 76.3- 3.0 1.0---- 8.5------------
1961-08-06 22.2 31.0 11.8- 72.5- 0.0 1.7---- 0.0------------
1961-08-05 18.4 24.2 14.0- 82.3- 2.3 1.7---- 0.0------------
1961-08-04 15.9 21.7 7.1- 79.0- 5.0 0.7---- 0.0------------
1961-08-03 15.8 22.2 12.3- 87.0- 5.7 0.3---- 0.0------------
1961-08-02 18.8 26.3 7.9- 76.3- 2.7 0.7---- 0.0------------
1961-08-01 15.2 21.7 9.6- 77.3- 1.0 2.7---- 0.0------------
1961-07-31 12.6 15.3 10.6- 96.5- 8.0 2.0---- 11.7------------
1961-07-30 11.8 14.6 10.3- 97.8- 8.0 1.0---- 30.0------------
1961-07-29 13.4 18.7 12.2- 92.5- 8.0 1.7---- 2.1------------
1961-07-28 20.3 24.2 15.0- 77.5- 5.3 3.0---- 9.6------------
1961-07-27 21.3 26.8 9.6- 71.0- 4.3 4.0---- 0.5------------
1961-07-26 16.8 23.7 7.4- 72.0- 2.0 3.3---- 0.0------------
1961-07-25 13.6 16.6 9.0- 80.5- 7.7 2.0---- 0.0------------
1961-07-24 14.6 20.0 9.9- 76.5- 4.0 1.7---- 0.0------------
1961-07-23 16.0 21.0 11.9- 79.5- 7.7 0.7---- 0.0------------
1961-07-22 15.6 19.8 12.0- 86.0- 7.7 1.7---- 0.3------------
1961-07-21 15.3 20.6 9.8- 82.5- 7.3 2.0---- 0.8------------
1961-07-20 14.6 20.5 8.2- 86.0- 6.0 1.3---- 0.0------------
1961-07-19 16.6 21.2 11.0- 72.0- 6.3 2.3---- 0.0------------
1961-07-18 14.7 20.8 9.2- 83.5- 6.7 2.7---- 0.0------------
1961-07-17 14.5 21.8 10.6- 79.8- 0.7 3.3---- 0.2------------
1961-07-16 15.9 22.3 13.7- 82.8- 5.7 2.7---- 0.0------------
1961-07-15 19.4 24.6 12.2- 75.8- 3.7 2.7---- 25.2------------
1961-07-14 15.0 20.2 12.5- 72.3- 3.3 3.0---- 0.0------------
1961-07-13 19.9 28.8 12.7- 79.5- 4.0 3.7---- 20.9------------
1961-07-12 20.8 28.1 11.2- 77.5- 1.0 1.7---- 0.0------------
1961-07-11 16.1 21.8 6.5- 80.5- 2.3 2.7---- 0.0------------
1961-07-10 14.3 20.8 9.1- 77.3- 4.0 3.3---- 1.5------------
1961-07-09 12.7 16.3 4.5- 91.8- 3.7 2.0---- 2.0------------
1961-07-08 15.9 20.4 4.7- 81.3- 2.3 0.3---- 0.0------------
1961-07-07 13.1 17.1 9.7- 81.3- 4.7 1.0---- 1.6------------
1961-07-06 12.4 17.8 6.2- 80.5- 7.0 2.7---- 3.4------------
1961-07-05 13.1 18.2 10.7- 81.0- 6.7 1.3---- 0.0------------
1961-07-04 21.0 29.7 12.7- 83.5- 4.0 1.0---- 5.5------------
1961-07-03 22.6 31.3 11.6- 65.8- 1.3 0.7---- 0.0------------
1961-07-02 21.3 29.2 10.3- 76.5- 1.7 0.7---- 0.0------------
1961-07-01 19.5 27.3 9.3- 80.5- 1.3 0.7---- 0.0------------
1961-06-30 18.5 25.3 7.7- 74.0- 1.3 0.0---- 0.0------------
1961-06-29 15.9 22.2 6.1- 73.8- 1.7 1.0---- 0.0------------
1961-06-28 13.1 19.5 10.5- 86.0- 3.0 4.0---- 2.0------------
1961-06-27 23.2 31.8 14.1- 76.3- 4.0 1.0---- 57.0------------
1961-06-26 21.3 30.7 12.5- 80.5- 4.7 1.7---- 0.5------------
1961-06-25 21.6 29.8 8.9- 65.8- 0.3 1.7---- 0.0------------
1961-06-24 19.1 26.8 9.6- 73.5- 2.7 3.3---- 0.0------------
1961-06-23 18.0 24.7 15.2- 81.5- 4.0 2.7---- 0.0------------
1961-06-22 19.3 26.3 8.6- 76.0- 2.3 1.3---- 5.2------------
1961-06-21 17.1 25.3 4.9- 60.5- 0.0 1.0---- 0.0------------
1961-06-20 15.1 22.2 9.2- 70.8- 0.3 1.7---- 0.0------------
1961-06-19 19.3 27.8 11.7- 79.5- 5.0 2.7---- 0.0------------
1961-06-18 18.6 26.6 7.0- 75.3- 1.0 1.0---- 0.0------------
1961-06-17 15.9 23.3 5.1- 76.3- 0.7 0.3---- 0.0------------
1961-06-16 13.6 20.7 6.8- 77.8- 0.3 2.3---- 0.0------------
319.1 ms

 

Źródłem pochodzenia danych jest Instytut Meteorologii i Gospodarki Wodnej – Państwowy Instytut Badawczy. Dane Instytutu Meteorologii i Gospodarki Wodnej – Państwowego Instytutu Badawczego zostały przetworzone.

Dane źródłowe można odnaleźć na stronie https://dane.imgw.pl